sensor_id;sensor_type;location;lat;lon;timestamp;P1;durP1;ratioP1;P2;durP2;ratioP2
74180;SDS011;62544;50.826;14.354;2023-02-01T00:01:55;5.55;;;1.62;;
74180;SDS011;62544;50.826;14.354;2023-02-01T00:06:19;5.55;;;1.62;;
74180;SDS011;62544;50.826;14.354;2023-02-01T00:10:43;5.55;;;1.62;;
74180;SDS011;62544;50.826;14.354;2023-02-01T00:15:07;5.55;;;1.62;;
74180;SDS011;62544;50.826;14.354;2023-02-01T00:19:31;5.55;;;1.62;;
74180;SDS011;62544;50.826;14.354;2023-02-01T00:23:55;5.55;;;1.62;;
74180;SDS011;62544;50.826;14.354;2023-02-01T00:28:19;5.55;;;1.62;;
74180;SDS011;62544;50.826;14.354;2023-02-01T00:32:43;5.55;;;1.62;;
74180;SDS011;62544;50.826;14.354;2023-02-01T00:37:07;5.55;;;1.62;;
74180;SDS011;62544;50.826;14.354;2023-02-01T00:41:31;5.55;;;1.62;;
74180;SDS011;62544;50.826;14.354;2023-02-01T00:45:55;5.55;;;1.62;;
74180;SDS011;62544;50.826;14.354;2023-02-01T00:50:19;5.55;;;1.62;;
74180;SDS011;62544;50.826;14.354;2023-02-01T00:54:43;5.55;;;1.62;;
74180;SDS011;62544;50.826;14.354;2023-02-01T00:59:10;5.55;;;1.62;;
74180;SDS011;62544;50.826;14.354;2023-02-01T01:03:31;5.55;;;1.62;;
74180;SDS011;62544;50.826;14.354;2023-02-01T01:07:55;5.55;;;1.62;;
74180;SDS011;62544;50.826;14.354;2023-02-01T01:12:19;5.55;;;1.62;;
74180;SDS011;62544;50.826;14.354;2023-02-01T01:16:43;5.55;;;1.62;;
74180;SDS011;62544;50.826;14.354;2023-02-01T01:21:07;5.55;;;1.62;;
74180;SDS011;62544;50.826;14.354;2023-02-01T01:25:31;5.55;;;1.62;;
74180;SDS011;62544;50.826;14.354;2023-02-01T01:29:55;5.55;;;1.62;;
74180;SDS011;62544;50.826;14.354;2023-02-01T01:34:19;5.55;;;1.62;;
74180;SDS011;62544;50.826;14.354;2023-02-01T01:38:43;5.55;;;1.62;;
74180;SDS011;62544;50.826;14.354;2023-02-01T01:43:14;5.55;;;1.62;;
74180;SDS011;62544;50.826;14.354;2023-02-01T01:47:37;7.26;;;1.63;;
74180;SDS011;62544;50.826;14.354;2023-02-01T01:51:55;7.26;;;1.63;;
74180;SDS011;62544;50.826;14.354;2023-02-01T01:56:19;7.26;;;1.63;;
74180;SDS011;62544;50.826;14.354;2023-02-01T02:00:43;7.26;;;1.63;;
74180;SDS011;62544;50.826;14.354;2023-02-01T02:05:07;7.26;;;1.63;;
74180;SDS011;62544;50.826;14.354;2023-02-01T02:09:31;7.26;;;1.63;;
74180;SDS011;62544;50.826;14.354;2023-02-01T02:13:55;7.26;;;1.63;;
74180;SDS011;62544;50.826;14.354;2023-02-01T02:18:21;7.26;;;1.63;;
74180;SDS011;62544;50.826;14.354;2023-02-01T02:31:38;7.26;;;1.63;;
74180;SDS011;62544;50.826;14.354;2023-02-01T02:35:57;7.26;;;1.63;;
74180;SDS011;62544;50.826;14.354;2023-02-01T02:44:54;7.26;;;1.63;;
74180;SDS011;62544;50.826;14.354;2023-02-01T02:49:20;7.26;;;1.63;;
74180;SDS011;62544;50.826;14.354;2023-02-01T02:53:35;7.26;;;1.63;;
74180;SDS011;62544;50.826;14.354;2023-02-01T02:57:55;7.26;;;1.63;;
74180;SDS011;62544;50.826;14.354;2023-02-01T03:02:19;7.26;;;1.63;;
74180;SDS011;62544;50.826;14.354;2023-02-01T03:06:43;7.26;;;1.63;;
74180;SDS011;62544;50.826;14.354;2023-02-01T03:11:07;7.26;;;1.63;;
74180;SDS011;62544;50.826;14.354;2023-02-01T03:19:55;7.26;;;1.63;;
74180;SDS011;62544;50.826;14.354;2023-02-01T03:24:20;7.26;;;1.63;;
74180;SDS011;62544;50.826;14.354;2023-02-01T03:28:44;7.26;;;1.63;;
74180;SDS011;62544;50.826;14.354;2023-02-01T03:33:10;7.26;;;1.63;;
74180;SDS011;62544;50.826;14.354;2023-02-01T03:37:31;7.34;;;1.68;;
74180;SDS011;62544;50.826;14.354;2023-02-01T03:42:09;7.34;;;1.68;;
74180;SDS011;62544;50.826;14.354;2023-02-01T03:46:24;7.34;;;1.68;;
74180;SDS011;62544;50.826;14.354;2023-02-01T03:50:44;7.34;;;1.68;;
74180;SDS011;62544;50.826;14.354;2023-02-01T03:55:07;7.34;;;1.68;;
74180;SDS011;62544;50.826;14.354;2023-02-01T03:59:31;7.34;;;1.68;;
74180;SDS011;62544;50.826;14.354;2023-02-01T04:03:55;7.34;;;1.68;;
74180;SDS011;62544;50.826;14.354;2023-02-01T04:08:19;7.34;;;1.68;;
74180;SDS011;62544;50.826;14.354;2023-02-01T04:12:43;7.34;;;1.68;;
74180;SDS011;62544;50.826;14.354;2023-02-01T04:17:07;7.34;;;1.68;;
74180;SDS011;62544;50.826;14.354;2023-02-01T04:21:31;7.34;;;1.68;;
74180;SDS011;62544;50.826;14.354;2023-02-01T04:25:58;7.34;;;1.68;;
74180;SDS011;62544;50.826;14.354;2023-02-01T04:30:19;7.34;;;1.68;;
74180;SDS011;62544;50.826;14.354;2023-02-01T04:34:43;7.34;;;1.68;;
74180;SDS011;62544;50.826;14.354;2023-02-01T04:39:08;7.34;;;1.68;;
74180;SDS011;62544;50.826;14.354;2023-02-01T04:43:31;7.34;;;1.68;;
74180;SDS011;62544;50.826;14.354;2023-02-01T04:47:55;7.34;;;1.68;;
74180;SDS011;62544;50.826;14.354;2023-02-01T04:52:19;7.34;;;1.68;;
74180;SDS011;62544;50.826;14.354;2023-02-01T04:56:43;7.34;;;1.68;;
74180;SDS011;62544;50.826;14.354;2023-02-01T05:01:07;7.34;;;1.68;;
74180;SDS011;62544;50.826;14.354;2023-02-01T05:05:31;7.34;;;1.68;;
74180;SDS011;62544;50.826;14.354;2023-02-01T05:09:55;7.34;;;1.68;;
74180;SDS011;62544;50.826;14.354;2023-02-01T05:14:19;7.34;;;1.68;;
74180;SDS011;62544;50.826;14.354;2023-02-01T05:18:43;7.34;;;1.68;;
74180;SDS011;62544;50.826;14.354;2023-02-01T05:23:06;7.34;;;1.68;;
74180;SDS011;62544;50.826;14.354;2023-02-01T05:27:31;7.34;;;1.68;;
74180;SDS011;62544;50.826;14.354;2023-02-01T05:31:55;7.34;;;1.68;;
74180;SDS011;62544;50.826;14.354;2023-02-01T05:36:19;7.34;;;1.68;;
74180;SDS011;62544;50.826;14.354;2023-02-01T05:40:43;7.34;;;1.68;;
74180;SDS011;62544;50.826;14.354;2023-02-01T05:45:07;7.34;;;1.68;;
74180;SDS011;62544;50.826;14.354;2023-02-01T05:49:31;7.34;;;1.68;;
74180;SDS011;62544;50.826;14.354;2023-02-01T05:53:55;7.34;;;1.68;;
74180;SDS011;62544;50.826;14.354;2023-02-01T05:58:19;7.34;;;1.68;;
74180;SDS011;62544;50.826;14.354;2023-02-01T06:02:43;7.34;;;1.68;;
74180;SDS011;62544;50.826;14.354;2023-02-01T06:07:07;7.34;;;1.68;;
74180;SDS011;62544;50.826;14.354;2023-02-01T06:11:31;7.34;;;1.68;;
74180;SDS011;62544;50.826;14.354;2023-02-01T06:15:55;10.46;;;1.87;;
74180;SDS011;62544;50.826;14.354;2023-02-01T06:20:18;10.46;;;1.87;;
74180;SDS011;62544;50.826;14.354;2023-02-01T06:24:43;10.46;;;1.87;;
74180;SDS011;62544;50.826;14.354;2023-02-01T06:29:07;10.46;;;1.87;;
74180;SDS011;62544;50.826;14.354;2023-02-01T06:33:31;10.46;;;1.87;;
74180;SDS011;62544;50.826;14.354;2023-02-01T06:37:54;10.46;;;1.87;;
74180;SDS011;62544;50.826;14.354;2023-02-01T06:42:18;10.46;;;1.87;;
74180;SDS011;62544;50.826;14.354;2023-02-01T06:46:43;10.46;;;1.87;;
74180;SDS011;62544;50.826;14.354;2023-02-01T06:51:15;10.46;;;1.87;;
74180;SDS011;62544;50.826;14.354;2023-02-01T06:55:31;10.46;;;1.87;;
74180;SDS011;62544;50.826;14.354;2023-02-01T06:59:54;10.46;;;1.87;;
74180;SDS011;62544;50.826;14.354;2023-02-01T07:04:19;10.46;;;1.87;;
74180;SDS011;62544;50.826;14.354;2023-02-01T07:08:43;10.46;;;1.87;;
74180;SDS011;62544;50.826;14.354;2023-02-01T07:13:06;10.46;;;1.87;;
74180;SDS011;62544;50.826;14.354;2023-02-01T07:17:31;10.46;;;1.87;;
74180;SDS011;62544;50.826;14.354;2023-02-01T07:21:54;10.46;;;1.87;;
74180;SDS011;62544;50.826;14.354;2023-02-01T07:26:18;10.46;;;1.87;;
74180;SDS011;62544;50.826;14.354;2023-02-01T07:30:42;10.46;;;1.87;;
74180;SDS011;62544;50.826;14.354;2023-02-01T07:35:07;10.46;;;1.87;;
74180;SDS011;62544;50.826;14.354;2023-02-01T07:39:30;10.46;;;1.87;;
74180;SDS011;62544;50.826;14.354;2023-02-01T07:43:55;10.46;;;1.87;;
74180;SDS011;62544;50.826;14.354;2023-02-01T07:48:19;10.46;;;1.87;;
74180;SDS011;62544;50.826;14.354;2023-02-01T07:52:42;10.46;;;1.87;;
74180;SDS011;62544;50.826;14.354;2023-02-01T07:57:06;10.46;;;1.87;;
74180;SDS011;62544;50.826;14.354;2023-02-01T08:01:30;10.46;;;1.87;;
74180;SDS011;62544;50.826;14.354;2023-02-01T08:05:55;10.46;;;1.87;;
74180;SDS011;62544;50.826;14.354;2023-02-01T08:10:18;10.46;;;1.87;;
74180;SDS011;62544;50.826;14.354;2023-02-01T08:14:42;6.64;;;1.63;;
74180;SDS011;62544;50.826;14.354;2023-02-01T08:19:06;6.64;;;1.63;;
74180;SDS011;62544;50.826;14.354;2023-02-01T08:23:30;6.64;;;1.63;;
74180;SDS011;62544;50.826;14.354;2023-02-01T08:27:54;6.64;;;1.63;;
74180;SDS011;62544;50.826;14.354;2023-02-01T08:32:18;6.64;;;1.63;;
74180;SDS011;62544;50.826;14.354;2023-02-01T08:36:42;6.64;;;1.63;;
74180;SDS011;62544;50.826;14.354;2023-02-01T08:41:07;6.64;;;1.63;;
74180;SDS011;62544;50.826;14.354;2023-02-01T08:45:30;9.49;;;1.84;;
74180;SDS011;62544;50.826;14.354;2023-02-01T08:49:54;9.49;;;1.84;;
74180;SDS011;62544;50.826;14.354;2023-02-01T08:54:18;9.49;;;1.84;;
74180;SDS011;62544;50.826;14.354;2023-02-01T08:58:42;9.49;;;1.84;;
74180;SDS011;62544;50.826;14.354;2023-02-01T09:03:08;9.49;;;1.84;;
74180;SDS011;62544;50.826;14.354;2023-02-01T09:07:30;11.59;;;2.28;;
74180;SDS011;62544;50.826;14.354;2023-02-01T09:11:54;11.59;;;2.28;;
74180;SDS011;62544;50.826;14.354;2023-02-01T09:16:18;11.59;;;2.28;;
74180;SDS011;62544;50.826;14.354;2023-02-01T09:20:42;11.59;;;2.28;;
74180;SDS011;62544;50.826;14.354;2023-02-01T09:25:07;11.59;;;2.28;;
74180;SDS011;62544;50.826;14.354;2023-02-01T09:29:31;11.59;;;2.28;;
74180;SDS011;62544;50.826;14.354;2023-02-01T09:33:54;7.65;;;1.50;;
74180;SDS011;62544;50.826;14.354;2023-02-01T09:38:18;7.65;;;1.50;;
74180;SDS011;62544;50.826;14.354;2023-02-01T09:42:45;7.65;;;1.50;;
74180;SDS011;62544;50.826;14.354;2023-02-01T09:47:13;7.65;;;1.50;;
74180;SDS011;62544;50.826;14.354;2023-02-01T09:51:34;7.65;;;1.50;;
74180;SDS011;62544;50.826;14.354;2023-02-01T09:55:55;7.65;;;1.50;;
74180;SDS011;62544;50.826;14.354;2023-02-01T10:00:20;7.65;;;1.50;;
74180;SDS011;62544;50.826;14.354;2023-02-01T10:04:42;7.65;;;1.50;;
74180;SDS011;62544;50.826;14.354;2023-02-01T10:13:37;7.65;;;1.50;;
74180;SDS011;62544;50.826;14.354;2023-02-01T10:18:00;7.65;;;1.50;;
74180;SDS011;62544;50.826;14.354;2023-02-01T10:22:40;7.65;;;1.50;;
74180;SDS011;62544;50.826;14.354;2023-02-01T10:26:45;7.65;;;1.50;;
74180;SDS011;62544;50.826;14.354;2023-02-01T10:31:06;7.65;;;1.50;;
74180;SDS011;62544;50.826;14.354;2023-02-01T10:35:31;4.91;;;1.47;;
74180;SDS011;62544;50.826;14.354;2023-02-01T10:39:55;4.91;;;1.47;;
74180;SDS011;62544;50.826;14.354;2023-02-01T10:44:19;2.76;;;0.69;;
74180;SDS011;62544;50.826;14.354;2023-02-01T10:48:42;2.76;;;0.69;;
74180;SDS011;62544;50.826;14.354;2023-02-01T10:57:30;2.76;;;0.69;;
74180;SDS011;62544;50.826;14.354;2023-02-01T11:02:01;2.76;;;0.69;;
74180;SDS011;62544;50.826;14.354;2023-02-01T11:10:42;1.15;;;0.48;;
74180;SDS011;62544;50.826;14.354;2023-02-01T11:15:14;1.52;;;0.58;;
74180;SDS011;62544;50.826;14.354;2023-02-01T11:19:31;1.52;;;0.58;;
74180;SDS011;62544;50.826;14.354;2023-02-01T11:23:54;2.38;;;0.57;;
74180;SDS011;62544;50.826;14.354;2023-02-01T11:28:19;2.38;;;0.57;;
74180;SDS011;62544;50.826;14.354;2023-02-01T11:32:42;2.38;;;0.57;;
74180;SDS011;62544;50.826;14.354;2023-02-01T11:37:12;3.55;;;0.98;;
74180;SDS011;62544;50.826;14.354;2023-02-01T11:41:30;3.55;;;0.98;;
74180;SDS011;62544;50.826;14.354;2023-02-01T11:45:59;3.55;;;0.98;;
74180;SDS011;62544;50.826;14.354;2023-02-01T11:50:21;3.55;;;0.98;;
74180;SDS011;62544;50.826;14.354;2023-02-01T11:55:01;7.50;;;1.86;;
74180;SDS011;62544;50.826;14.354;2023-02-01T12:03:40;9.57;;;1.87;;
74180;SDS011;62544;50.826;14.354;2023-02-01T12:16:55;26.79;;;7.42;;
74180;SDS011;62544;50.826;14.354;2023-02-01T12:21:19;26.79;;;7.42;;
74180;SDS011;62544;50.826;14.354;2023-02-01T12:34:28;6.96;;;1.72;;
74180;SDS011;62544;50.826;14.354;2023-02-01T12:38:52;6.96;;;1.72;;
74180;SDS011;62544;50.826;14.354;2023-02-01T12:43:11;6.96;;;1.72;;
74180;SDS011;62544;50.826;14.354;2023-02-01T12:51:57;6.96;;;1.72;;
74180;SDS011;62544;50.826;14.354;2023-02-01T12:56:22;6.96;;;1.72;;
74180;SDS011;62544;50.826;14.354;2023-02-01T13:01:00;6.96;;;1.72;;
74180;SDS011;62544;50.826;14.354;2023-02-01T13:18:20;6.59;;;1.23;;
74180;SDS011;62544;50.826;14.354;2023-02-01T13:22:47;6.59;;;1.23;;
74180;SDS011;62544;50.826;14.354;2023-02-01T13:27:08;7.04;;;1.37;;
74180;SDS011;62544;50.826;14.354;2023-02-01T13:31:50;7.04;;;1.37;;
74180;SDS011;62544;50.826;14.354;2023-02-01T13:36:02;9.34;;;1.40;;
74180;SDS011;62544;50.826;14.354;2023-02-01T13:44:49;8.24;;;1.69;;
74180;SDS011;62544;50.826;14.354;2023-02-01T13:49:06;8.24;;;1.69;;
74180;SDS011;62544;50.826;14.354;2023-02-01T13:53:31;7.80;;;1.46;;
74180;SDS011;62544;50.826;14.354;2023-02-01T13:58:12;7.80;;;1.46;;
74180;SDS011;62544;50.826;14.354;2023-02-01T14:06:42;7.80;;;1.46;;
74180;SDS011;62544;50.826;14.354;2023-02-01T14:11:06;7.80;;;1.46;;
74180;SDS011;62544;50.826;14.354;2023-02-01T14:15:30;7.58;;;1.64;;
74180;SDS011;62544;50.826;14.354;2023-02-01T14:20:07;7.58;;;1.64;;
74180;SDS011;62544;50.826;14.354;2023-02-01T14:24:21;7.58;;;1.64;;
74180;SDS011;62544;50.826;14.354;2023-02-01T14:28:46;7.58;;;1.64;;
74180;SDS011;62544;50.826;14.354;2023-02-01T14:33:19;7.58;;;1.64;;
74180;SDS011;62544;50.826;14.354;2023-02-01T14:37:37;7.58;;;1.64;;
74180;SDS011;62544;50.826;14.354;2023-02-01T14:41:58;7.58;;;1.64;;
74180;SDS011;62544;50.826;14.354;2023-02-01T14:46:18;7.58;;;1.64;;
74180;SDS011;62544;50.826;14.354;2023-02-01T14:50:43;7.58;;;1.64;;
74180;SDS011;62544;50.826;14.354;2023-02-01T14:55:08;7.58;;;1.64;;
74180;SDS011;62544;50.826;14.354;2023-02-01T14:59:30;7.58;;;1.64;;
74180;SDS011;62544;50.826;14.354;2023-02-01T15:03:59;7.58;;;1.64;;
74180;SDS011;62544;50.826;14.354;2023-02-01T15:08:20;7.58;;;1.64;;
74180;SDS011;62544;50.826;14.354;2023-02-01T15:12:42;7.58;;;1.64;;
74180;SDS011;62544;50.826;14.354;2023-02-01T15:17:19;7.58;;;1.64;;
74180;SDS011;62544;50.826;14.354;2023-02-01T15:21:41;7.58;;;1.64;;
74180;SDS011;62544;50.826;14.354;2023-02-01T15:25:54;7.58;;;1.64;;
74180;SDS011;62544;50.826;14.354;2023-02-01T15:30:22;7.58;;;1.64;;
74180;SDS011;62544;50.826;14.354;2023-02-01T15:34:46;7.58;;;1.64;;
74180;SDS011;62544;50.826;14.354;2023-02-01T15:39:17;7.58;;;1.64;;
74180;SDS011;62544;50.826;14.354;2023-02-01T15:43:31;7.58;;;1.64;;
74180;SDS011;62544;50.826;14.354;2023-02-01T15:47:55;7.58;;;1.64;;
74180;SDS011;62544;50.826;14.354;2023-02-01T15:56:42;7.58;;;1.64;;
74180;SDS011;62544;50.826;14.354;2023-02-01T16:01:06;7.58;;;1.64;;
74180;SDS011;62544;50.826;14.354;2023-02-01T16:05:33;5.85;;;1.55;;
74180;SDS011;62544;50.826;14.354;2023-02-01T16:09:55;5.85;;;1.55;;
74180;SDS011;62544;50.826;14.354;2023-02-01T16:14:20;5.85;;;1.55;;
74180;SDS011;62544;50.826;14.354;2023-02-01T16:18:45;5.85;;;1.55;;
74180;SDS011;62544;50.826;14.354;2023-02-01T16:23:06;5.85;;;1.55;;
74180;SDS011;62544;50.826;14.354;2023-02-01T16:27:30;5.85;;;1.55;;
74180;SDS011;62544;50.826;14.354;2023-02-01T16:31:54;5.85;;;1.55;;
74180;SDS011;62544;50.826;14.354;2023-02-01T16:36:18;5.85;;;1.55;;
74180;SDS011;62544;50.826;14.354;2023-02-01T16:40:42;5.85;;;1.55;;
74180;SDS011;62544;50.826;14.354;2023-02-01T16:45:06;5.85;;;1.55;;
74180;SDS011;62544;50.826;14.354;2023-02-01T16:49:30;5.85;;;1.55;;
74180;SDS011;62544;50.826;14.354;2023-02-01T16:53:54;5.85;;;1.55;;
74180;SDS011;62544;50.826;14.354;2023-02-01T16:58:19;5.85;;;1.55;;
74180;SDS011;62544;50.826;14.354;2023-02-01T17:02:42;5.85;;;1.55;;
74180;SDS011;62544;50.826;14.354;2023-02-01T17:07:06;5.85;;;1.55;;
74180;SDS011;62544;50.826;14.354;2023-02-01T17:11:30;5.85;;;1.55;;
74180;SDS011;62544;50.826;14.354;2023-02-01T17:20:19;5.85;;;1.55;;
74180;SDS011;62544;50.826;14.354;2023-02-01T17:24:42;5.85;;;1.55;;
74180;SDS011;62544;50.826;14.354;2023-02-01T17:29:06;5.85;;;1.55;;
74180;SDS011;62544;50.826;14.354;2023-02-01T17:33:31;5.85;;;1.55;;
74180;SDS011;62544;50.826;14.354;2023-02-01T17:37:54;5.85;;;1.55;;
74180;SDS011;62544;50.826;14.354;2023-02-01T17:42:25;5.85;;;1.55;;
74180;SDS011;62544;50.826;14.354;2023-02-01T18:08:32;1.89;;;0.80;;
74180;SDS011;62544;50.826;14.354;2023-02-01T18:12:48;1.89;;;0.80;;
74180;SDS011;62544;50.826;14.354;2023-02-01T18:17:04;1.89;;;0.80;;
74180;SDS011;62544;50.826;14.354;2023-02-01T18:21:20;0.70;;;0.33;;
74180;SDS011;62544;50.826;14.354;2023-02-01T18:25:36;0.70;;;0.33;;
74180;SDS011;62544;50.826;14.354;2023-02-01T18:29:52;1.31;;;0.28;;
74180;SDS011;62544;50.826;14.354;2023-02-01T18:34:08;1.31;;;0.28;;
74180;SDS011;62544;50.826;14.354;2023-02-01T18:38:24;1.87;;;0.52;;
74180;SDS011;62544;50.826;14.354;2023-02-01T18:42:39;1.87;;;0.52;;
74180;SDS011;62544;50.826;14.354;2023-02-01T18:46:55;1.87;;;0.52;;
74180;SDS011;62544;50.826;14.354;2023-02-01T18:51:12;3.60;;;0.79;;
74180;SDS011;62544;50.826;14.354;2023-02-01T18:55:28;3.60;;;0.79;;
74180;SDS011;62544;50.826;14.354;2023-02-01T18:59:47;3.03;;;0.59;;
74180;SDS011;62544;50.826;14.354;2023-02-01T19:03:59;3.03;;;0.59;;
74180;SDS011;62544;50.826;14.354;2023-02-01T19:08:15;4.70;;;0.75;;
74180;SDS011;62544;50.826;14.354;2023-02-01T19:12:32;4.70;;;0.75;;
74180;SDS011;62544;50.826;14.354;2023-02-01T19:16:48;4.70;;;0.75;;
74180;SDS011;62544;50.826;14.354;2023-02-01T19:21:04;3.80;;;0.64;;
74180;SDS011;62544;50.826;14.354;2023-02-01T19:25:21;3.80;;;0.64;;
74180;SDS011;62544;50.826;14.354;2023-02-01T19:29:36;5.31;;;0.85;;
74180;SDS011;62544;50.826;14.354;2023-02-01T19:33:53;5.31;;;0.85;;
74180;SDS011;62544;50.826;14.354;2023-02-01T19:38:08;4.70;;;0.67;;
74180;SDS011;62544;50.826;14.354;2023-02-01T19:42:24;4.70;;;0.67;;
74180;SDS011;62544;50.826;14.354;2023-02-01T19:46:41;4.70;;;0.67;;
74180;SDS011;62544;50.826;14.354;2023-02-01T19:50:56;4.00;;;0.92;;
74180;SDS011;62544;50.826;14.354;2023-02-01T19:55:15;4.00;;;0.92;;
74180;SDS011;62544;50.826;14.354;2023-02-01T19:59:28;4.29;;;0.92;;
74180;SDS011;62544;50.826;14.354;2023-02-01T20:03:44;4.29;;;0.92;;
74180;SDS011;62544;50.826;14.354;2023-02-01T20:08:00;4.29;;;0.92;;
74180;SDS011;62544;50.826;14.354;2023-02-01T20:12:16;4.29;;;0.92;;
74180;SDS011;62544;50.826;14.354;2023-02-01T20:16:32;4.29;;;0.92;;
74180;SDS011;62544;50.826;14.354;2023-02-01T20:20:48;3.70;;;0.93;;
74180;SDS011;62544;50.826;14.354;2023-02-01T20:25:04;3.70;;;0.93;;
74180;SDS011;62544;50.826;14.354;2023-02-01T20:29:20;3.20;;;0.94;;
74180;SDS011;62544;50.826;14.354;2023-02-01T20:33:36;3.20;;;0.94;;
74180;SDS011;62544;50.826;14.354;2023-02-01T20:37:52;6.26;;;1.75;;
74180;SDS011;62544;50.826;14.354;2023-02-01T20:42:08;6.26;;;1.75;;
74180;SDS011;62544;50.826;14.354;2023-02-01T20:46:24;6.26;;;1.75;;
74180;SDS011;62544;50.826;14.354;2023-02-01T20:50:40;8.69;;;2.41;;
74180;SDS011;62544;50.826;14.354;2023-02-01T20:54:56;8.69;;;2.41;;
74180;SDS011;62544;50.826;14.354;2023-02-01T20:59:12;3.66;;;0.82;;
74180;SDS011;62544;50.826;14.354;2023-02-01T21:03:28;3.66;;;0.82;;
74180;SDS011;62544;50.826;14.354;2023-02-01T21:07:44;4.84;;;0.80;;
74180;SDS011;62544;50.826;14.354;2023-02-01T21:12:01;4.84;;;0.80;;
74180;SDS011;62544;50.826;14.354;2023-02-01T21:16:18;4.84;;;0.80;;
74180;SDS011;62544;50.826;14.354;2023-02-01T21:20:33;8.47;;;3.23;;
74180;SDS011;62544;50.826;14.354;2023-02-01T21:24:49;8.47;;;3.23;;
74180;SDS011;62544;50.826;14.354;2023-02-01T21:29:08;2.14;;;0.46;;
74180;SDS011;62544;50.826;14.354;2023-02-01T21:33:21;2.14;;;0.46;;
74180;SDS011;62544;50.826;14.354;2023-02-01T21:37:37;2.42;;;0.65;;
74180;SDS011;62544;50.826;14.354;2023-02-01T21:41:53;2.42;;;0.65;;
74180;SDS011;62544;50.826;14.354;2023-02-01T21:46:09;2.42;;;0.65;;
74180;SDS011;62544;50.826;14.354;2023-02-01T21:50:25;2.63;;;0.79;;
74180;SDS011;62544;50.826;14.354;2023-02-01T21:54:41;2.63;;;0.79;;
74180;SDS011;62544;50.826;14.354;2023-02-01T21:58:57;2.63;;;0.79;;
74180;SDS011;62544;50.826;14.354;2023-02-01T22:03:13;2.63;;;0.79;;
74180;SDS011;62544;50.826;14.354;2023-02-01T22:07:29;2.63;;;0.79;;
74180;SDS011;62544;50.826;14.354;2023-02-01T22:11:45;2.63;;;0.79;;
74180;SDS011;62544;50.826;14.354;2023-02-01T22:16:01;2.63;;;0.79;;
74180;SDS011;62544;50.826;14.354;2023-02-01T22:20:20;5.19;;;0.90;;
74180;SDS011;62544;50.826;14.354;2023-02-01T22:24:33;5.19;;;0.90;;
74180;SDS011;62544;50.826;14.354;2023-02-01T22:28:49;5.19;;;0.90;;
74180;SDS011;62544;50.826;14.354;2023-02-01T22:33:05;5.19;;;0.90;;
74180;SDS011;62544;50.826;14.354;2023-02-01T22:37:21;3.35;;;0.71;;
74180;SDS011;62544;50.826;14.354;2023-02-01T22:41:37;3.35;;;0.71;;
74180;SDS011;62544;50.826;14.354;2023-02-01T22:45:53;3.35;;;0.71;;
74180;SDS011;62544;50.826;14.354;2023-02-01T22:50:09;2.30;;;0.66;;
74180;SDS011;62544;50.826;14.354;2023-02-01T22:54:25;2.30;;;0.66;;
74180;SDS011;62544;50.826;14.354;2023-02-01T22:58:41;4.28;;;1.38;;
74180;SDS011;62544;50.826;14.354;2023-02-01T23:02:56;4.28;;;1.38;;
74180;SDS011;62544;50.826;14.354;2023-02-01T23:07:13;3.57;;;0.88;;
74180;SDS011;62544;50.826;14.354;2023-02-01T23:11:29;3.57;;;0.88;;
74180;SDS011;62544;50.826;14.354;2023-02-01T23:15:45;3.57;;;0.88;;
74180;SDS011;62544;50.826;14.354;2023-02-01T23:20:01;4.01;;;1.05;;
74180;SDS011;62544;50.826;14.354;2023-02-01T23:24:16;4.01;;;1.05;;
74180;SDS011;62544;50.826;14.354;2023-02-01T23:28:32;6.57;;;1.14;;
74180;SDS011;62544;50.826;14.354;2023-02-01T23:32:48;6.57;;;1.14;;
74180;SDS011;62544;50.826;14.354;2023-02-01T23:37:05;4.89;;;1.06;;
74180;SDS011;62544;50.826;14.354;2023-02-01T23:41:21;4.89;;;1.06;;
74180;SDS011;62544;50.826;14.354;2023-02-01T23:45:37;4.89;;;1.06;;
74180;SDS011;62544;50.826;14.354;2023-02-01T23:49:52;4.89;;;1.06;;
74180;SDS011;62544;50.826;14.354;2023-02-01T23:54:09;4.89;;;1.06;;
74180;SDS011;62544;50.826;14.354;2023-02-01T23:58:24;6.99;;;1.01;;
